sensor_id;sensor_type;location;lat;lon;timestamp;pressure;altitude;pressure_sealevel;temperature;humidity
9091;BME280;4581;42.416;25.598;2023-11-19T00:01:51;97888.94;;;6.01;nan
9091;BME280;4581;42.416;25.598;2023-11-19T00:04:17;97896.97;;;6.01;nan
9091;BME280;4581;42.416;25.598;2023-11-19T00:06:44;97906.47;;;5.95;nan
9091;BME280;4581;42.416;25.598;2023-11-19T00:09:11;97904.06;;;5.84;nan
9091;BME280;4581;42.416;25.598;2023-11-19T00:11:38;97913.53;;;5.79;nan
9091;BME280;4581;42.416;25.598;2023-11-19T00:14:05;97897.84;;;5.76;nan
9091;BME280;4581;42.416;25.598;2023-11-19T00:16:35;97890.13;;;5.73;nan
9091;BME280;4581;42.416;25.598;2023-11-19T00:19:02;97907.50;;;5.69;nan
9091;BME280;4581;42.416;25.598;2023-11-19T00:21:30;97907.81;;;5.65;nan
9091;BME280;4581;42.416;25.598;2023-11-19T00:23:59;97894.41;;;5.57;nan
9091;BME280;4581;42.416;25.598;2023-11-19T00:26:26;97918.16;;;5.60;nan
9091;BME280;4581;42.416;25.598;2023-11-19T00:28:53;97913.78;;;5.59;nan
9091;BME280;4581;42.416;25.598;2023-11-19T00:31:20;97912.81;;;5.60;nan
9091;BME280;4581;42.416;25.598;2023-11-19T00:33:47;97915.63;;;5.59;nan
9091;BME280;4581;42.416;25.598;2023-11-19T00:36:15;97920.81;;;5.60;nan
9091;BME280;4581;42.416;25.598;2023-11-19T00:38:42;97931.19;;;5.63;nan
9091;BME280;4581;42.416;25.598;2023-11-19T00:41:09;97924.69;;;5.66;nan
9091;BME280;4581;42.416;25.598;2023-11-19T00:43:36;97935.94;;;5.70;nan
9091;BME280;4581;42.416;25.598;2023-11-19T00:46:03;97940.94;;;5.73;nan
9091;BME280;4581;42.416;25.598;2023-11-19T00:48:31;97938.63;;;5.78;nan
9091;BME280;4581;42.416;25.598;2023-11-19T00:50:58;97936.31;;;5.83;nan
9091;BME280;4581;42.416;25.598;2023-11-19T00:53:25;97933.28;;;5.78;nan
9091;BME280;4581;42.416;25.598;2023-11-19T00:55:51;97938.09;;;5.74;nan
9091;BME280;4581;42.416;25.598;2023-11-19T00:58:18;97947.13;;;5.73;nan
9091;BME280;4581;42.416;25.598;2023-11-19T01:00:45;97951.66;;;5.73;nan
9091;BME280;4581;42.416;25.598;2023-11-19T01:03:12;97944.78;;;5.78;nan
9091;BME280;4581;42.416;25.598;2023-11-19T01:05:39;97947.84;;;5.83;nan
9091;BME280;4581;42.416;25.598;2023-11-19T01:08:05;97944.19;;;5.84;nan
9091;BME280;4581;42.416;25.598;2023-11-19T01:10:33;97939.38;;;5.88;nan
9091;BME280;4581;42.416;25.598;2023-11-19T01:13:00;97939.38;;;5.88;nan
9091;BME280;4581;42.416;25.598;2023-11-19T01:15:27;97935.22;;;5.93;nan
9091;BME280;4581;42.416;25.598;2023-11-19T01:17:54;97941.72;;;5.91;nan
9091;BME280;4581;42.416;25.598;2023-11-19T01:20:28;97940.41;;;5.95;nan
9091;BME280;4581;42.416;25.598;2023-11-19T01:22:55;97929.69;;;5.95;nan
9091;BME280;4581;42.416;25.598;2023-11-19T01:25:23;97949.78;;;5.99;nan
9091;BME280;4581;42.416;25.598;2023-11-19T01:27:49;97928.84;;;5.94;nan
9091;BME280;4581;42.416;25.598;2023-11-19T01:30:17;97947.31;;;6.05;nan
9091;BME280;4581;42.416;25.598;2023-11-19T01:32:46;97940.63;;;6.01;nan
9091;BME280;4581;42.416;25.598;2023-11-19T01:35:13;97958.16;;;6.04;nan
9091;BME280;4581;42.416;25.598;2023-11-19T01:37:40;97949.31;;;6.03;nan
9091;BME280;4581;42.416;25.598;2023-11-19T01:40:07;97958.53;;;6.09;nan
9091;BME280;4581;42.416;25.598;2023-11-19T01:42:38;97960.03;;;6.11;nan
9091;BME280;4581;42.416;25.598;2023-11-19T01:45:06;97941.81;;;6.15;nan
9091;BME280;4581;42.416;25.598;2023-11-19T01:47:35;97947.50;;;6.12;nan
9091;BME280;4581;42.416;25.598;2023-11-19T01:50:03;97950.03;;;6.14;nan
9091;BME280;4581;42.416;25.598;2023-11-19T01:52:34;97951.38;;;6.18;nan
9091;BME280;4581;42.416;25.598;2023-11-19T01:55:07;97942.84;;;6.22;nan
9091;BME280;4581;42.416;25.598;2023-11-19T01:57:35;97949.88;;;6.23;nan
9091;BME280;4581;42.416;25.598;2023-11-19T02:00:05;97926.97;;;6.21;nan
9091;BME280;4581;42.416;25.598;2023-11-19T02:02:32;97925.75;;;6.15;nan
9091;BME280;4581;42.416;25.598;2023-11-19T02:04:59;97924.41;;;6.11;nan
9091;BME280;4581;42.416;25.598;2023-11-19T02:07:26;97937.66;;;6.21;nan
9091;BME280;4581;42.416;25.598;2023-11-19T02:09:53;97925.13;;;6.21;nan
9091;BME280;4581;42.416;25.598;2023-11-19T02:12:20;97927.31;;;6.26;nan
9091;BME280;4581;42.416;25.598;2023-11-19T02:14:47;97906.91;;;6.25;nan
9091;BME280;4581;42.416;25.598;2023-11-19T02:17:27;97925.44;;;6.26;nan
9091;BME280;4581;42.416;25.598;2023-11-19T02:19:54;97913.06;;;6.17;nan
9091;BME280;4581;42.416;25.598;2023-11-19T02:22:21;97910.72;;;6.22;nan
9091;BME280;4581;42.416;25.598;2023-11-19T02:24:51;97923.63;;;6.27;nan
9091;BME280;4581;42.416;25.598;2023-11-19T02:27:38;97934.69;;;6.32;nan
9091;BME280;4581;42.416;25.598;2023-11-19T02:30:05;97920.13;;;6.34;nan
9091;BME280;4581;42.416;25.598;2023-11-19T02:32:35;97918.63;;;6.32;nan
9091;BME280;4581;42.416;25.598;2023-11-19T02:35:02;97928.69;;;6.38;nan
9091;BME280;4581;42.416;25.598;2023-11-19T02:37:31;97928.34;;;6.41;nan
9091;BME280;4581;42.416;25.598;2023-11-19T02:39:58;97916.09;;;6.38;nan
9091;BME280;4581;42.416;25.598;2023-11-19T02:42:36;97933.50;;;6.42;nan
9091;BME280;4581;42.416;25.598;2023-11-19T02:45:03;97942.09;;;6.46;nan
9091;BME280;4581;42.416;25.598;2023-11-19T02:47:33;97926.19;;;6.44;nan
9091;BME280;4581;42.416;25.598;2023-11-19T02:50:00;97932.19;;;6.46;nan
9091;BME280;4581;42.416;25.598;2023-11-19T02:52:27;97922.50;;;6.45;nan
9091;BME280;4581;42.416;25.598;2023-11-19T02:54:54;97943.91;;;6.45;nan
9091;BME280;4581;42.416;25.598;2023-11-19T02:57:22;97950.63;;;6.49;nan
9091;BME280;4581;42.416;25.598;2023-11-19T02:59:49;97958.66;;;6.49;nan
9091;BME280;4581;42.416;25.598;2023-11-19T03:02:16;97946.91;;;6.50;nan
9091;BME280;4581;42.416;25.598;2023-11-19T03:04:44;97952.13;;;6.52;nan
9091;BME280;4581;42.416;25.598;2023-11-19T03:07:12;97941.41;;;6.52;nan
9091;BME280;4581;42.416;25.598;2023-11-19T03:09:40;97943.59;;;6.56;nan
9091;BME280;4581;42.416;25.598;2023-11-19T03:12:07;97941.91;;;6.55;nan
9091;BME280;4581;42.416;25.598;2023-11-19T03:14:34;97947.28;;;6.55;nan
9091;BME280;4581;42.416;25.598;2023-11-19T03:17:01;97946.28;;;6.56;nan
9091;BME280;4581;42.416;25.598;2023-11-19T03:19:28;97952.97;;;6.52;nan
9091;BME280;4581;42.416;25.598;2023-11-19T03:21:55;97954.31;;;6.56;nan
9091;BME280;4581;42.416;25.598;2023-11-19T03:24:22;97954.94;;;6.50;nan
9091;BME280;4581;42.416;25.598;2023-11-19T03:26:49;97955.66;;;6.52;nan
9091;BME280;4581;42.416;25.598;2023-11-19T03:29:18;97950.28;;;6.44;nan
9091;BME280;4581;42.416;25.598;2023-11-19T03:31:45;97960.50;;;6.49;nan
9091;BME280;4581;42.416;25.598;2023-11-19T03:34:12;97956.28;;;6.46;nan
9091;BME280;4581;42.416;25.598;2023-11-19T03:36:39;97985.72;;;6.46;nan
9091;BME280;4581;42.416;25.598;2023-11-19T03:39:06;97982.56;;;6.43;nan
9091;BME280;4581;42.416;25.598;2023-11-19T03:41:33;97989.59;;;6.44;nan
9091;BME280;4581;42.416;25.598;2023-11-19T03:44:03;97980.34;;;6.38;nan
9091;BME280;4581;42.416;25.598;2023-11-19T03:46:29;97988.72;;;6.35;nan
9091;BME280;4581;42.416;25.598;2023-11-19T03:48:56;97982.03;;;6.39;nan
9091;BME280;4581;42.416;25.598;2023-11-19T03:51:23;97987.03;;;6.34;nan
9091;BME280;4581;42.416;25.598;2023-11-19T03:53:50;97990.56;;;6.35;nan
9091;BME280;4581;42.416;25.598;2023-11-19T03:56:17;97989.72;;;6.34;nan
9091;BME280;4581;42.416;25.598;2023-11-19T03:58:43;98007.59;;;6.26;nan
9091;BME280;4581;42.416;25.598;2023-11-19T04:01:11;97999.91;;;6.31;nan
9091;BME280;4581;42.416;25.598;2023-11-19T04:03:41;97997.22;;;6.31;nan
9091;BME280;4581;42.416;25.598;2023-11-19T04:06:11;97996.72;;;6.27;nan
9091;BME280;4581;42.416;25.598;2023-11-19T04:08:38;98007.28;;;6.29;nan
9091;BME280;4581;42.416;25.598;2023-11-19T04:11:04;98008.13;;;6.29;nan
9091;BME280;4581;42.416;25.598;2023-11-19T04:13:31;98014.81;;;6.33;nan
9091;BME280;4581;42.416;25.598;2023-11-19T04:15:59;98023.34;;;6.29;nan
9091;BME280;4581;42.416;25.598;2023-11-19T04:18:25;98020.47;;;6.30;nan
9091;BME280;4581;42.416;25.598;2023-11-19T04:20:52;98010.81;;;6.29;nan
9091;BME280;4581;42.416;25.598;2023-11-19T04:23:19;98027.16;;;6.26;nan
9091;BME280;4581;42.416;25.598;2023-11-19T04:25:46;98021.31;;;6.31;nan
9091;BME280;4581;42.416;25.598;2023-11-19T04:28:12;98019.50;;;6.31;nan
9091;BME280;4581;42.416;25.598;2023-11-19T04:30:39;98020.47;;;6.30;nan
9091;BME280;4581;42.416;25.598;2023-11-19T04:33:06;98021.03;;;6.34;nan
9091;BME280;4581;42.416;25.598;2023-11-19T04:35:33;98029.19;;;6.32;nan
9091;BME280;4581;42.416;25.598;2023-11-19T04:37:59;98031.53;;;6.27;nan
9091;BME280;4581;42.416;25.598;2023-11-19T04:40:26;98027.53;;;6.31;nan
9091;BME280;4581;42.416;25.598;2023-11-19T04:42:53;98040.09;;;6.39;nan
9091;BME280;4581;42.416;25.598;2023-11-19T04:45:20;98027.19;;;6.34;nan
9091;BME280;4581;42.416;25.598;2023-11-19T04:47:47;98035.25;;;6.42;nan
9091;BME280;4581;42.416;25.598;2023-11-19T04:50:13;98021.84;;;6.34;nan
9091;BME280;4581;42.416;25.598;2023-11-19T04:52:40;98040.94;;;6.39;nan
9091;BME280;4581;42.416;25.598;2023-11-19T04:55:08;98033.72;;;6.32;nan
9091;BME280;4581;42.416;25.598;2023-11-19T04:57:38;98033.38;;;6.35;nan
9091;BME280;4581;42.416;25.598;2023-11-19T05:00:05;98030.88;;;6.33;nan
9091;BME280;4581;42.416;25.598;2023-11-19T05:02:42;98025.03;;;6.30;nan
9091;BME280;4581;42.416;25.598;2023-11-19T05:05:09;98031.88;;;6.32;nan
9091;BME280;4581;42.416;25.598;2023-11-19T05:07:36;98036.88;;;6.27;nan
9091;BME280;4581;42.416;25.598;2023-11-19T05:10:07;98029.84;;;6.26;nan
9091;BME280;4581;42.416;25.598;2023-11-19T05:12:34;98042.56;;;6.24;nan
9091;BME280;4581;42.416;25.598;2023-11-19T05:15:01;98035.00;;;6.20;nan
9091;BME280;4581;42.416;25.598;2023-11-19T05:17:27;98043.88;;;6.20;nan
9091;BME280;4581;42.416;25.598;2023-11-19T05:19:54;98049.06;;;6.22;nan
9091;BME280;4581;42.416;25.598;2023-11-19T05:22:21;98057.63;;;6.25;nan
9091;BME280;4581;42.416;25.598;2023-11-19T05:24:48;98065.94;;;6.22;nan
9091;BME280;4581;42.416;25.598;2023-11-19T05:27:16;98061.28;;;6.24;nan
9091;BME280;4581;42.416;25.598;2023-11-19T05:29:43;98079.19;;;6.24;nan
9091;BME280;4581;42.416;25.598;2023-11-19T05:32:10;98071.84;;;6.26;nan
9091;BME280;4581;42.416;25.598;2023-11-19T05:34:40;98084.03;;;6.20;nan
9091;BME280;4581;42.416;25.598;2023-11-19T05:37:11;98089.56;;;6.27;nan
9091;BME280;4581;42.416;25.598;2023-11-19T05:39:37;98066.63;;;6.24;nan
9091;BME280;4581;42.416;25.598;2023-11-19T05:42:04;98092.41;;;6.25;nan
9091;BME280;4581;42.416;25.598;2023-11-19T05:44:31;98096.03;;;6.16;nan
9091;BME280;4581;42.416;25.598;2023-11-19T05:46:58;98099.56;;;6.17;nan
9091;BME280;4581;42.416;25.598;2023-11-19T05:49:25;98075.63;;;6.15;nan
9091;BME280;4581;42.416;25.598;2023-11-19T05:51:53;98089.03;;;6.23;nan
9091;BME280;4581;42.416;25.598;2023-11-19T05:54:24;98075.78;;;6.14;nan
9091;BME280;4581;42.416;25.598;2023-11-19T05:56:52;98066.94;;;6.13;nan
9091;BME280;4581;42.416;25.598;2023-11-19T05:59:20;98073.78;;;6.16;nan
9091;BME280;4581;42.416;25.598;2023-11-19T06:01:49;98079.84;;;6.18;nan
9091;BME280;4581;42.416;25.598;2023-11-19T06:04:15;98085.34;;;6.16;nan
9091;BME280;4581;42.416;25.598;2023-11-19T06:06:42;98067.59;;;6.15;nan
9091;BME280;4581;42.416;25.598;2023-11-19T06:09:09;98075.94;;;6.12;nan
9091;BME280;4581;42.416;25.598;2023-11-19T06:11:39;98064.53;;;6.10;nan
9091;BME280;4581;42.416;25.598;2023-11-19T06:14:06;98055.19;;;6.14;nan
9091;BME280;4581;42.416;25.598;2023-11-19T06:16:33;98047.53;;;6.19;nan
9091;BME280;4581;42.416;25.598;2023-11-19T06:19:00;98048.91;;;6.23;nan
9091;BME280;4581;42.416;25.598;2023-11-19T06:21:27;98046.06;;;6.25;nan
9091;BME280;4581;42.416;25.598;2023-11-19T06:23:54;98035.19;;;6.26;nan
9091;BME280;4581;42.416;25.598;2023-11-19T06:26:21;98041.38;;;6.27;nan
9091;BME280;4581;42.416;25.598;2023-11-19T06:28:48;98027.84;;;6.28;nan
9091;BME280;4581;42.416;25.598;2023-11-19T06:31:15;98026.16;;;6.27;nan
9091;BME280;4581;42.416;25.598;2023-11-19T06:33:42;98021.66;;;6.28;nan
9091;BME280;4581;42.416;25.598;2023-11-19T06:36:09;98036.53;;;6.30;nan
9091;BME280;4581;42.416;25.598;2023-11-19T06:38:37;98037.91;;;6.34;nan
9091;BME280;4581;42.416;25.598;2023-11-19T06:41:07;98058.50;;;6.34;nan
9091;BME280;4581;42.416;25.598;2023-11-19T06:43:36;98030.88;;;6.33;nan
9091;BME280;4581;42.416;25.598;2023-11-19T06:46:14;98033.91;;;6.38;nan
9091;BME280;4581;42.416;25.598;2023-11-19T06:48:41;98038.59;;;6.36;nan
9091;BME280;4581;42.416;25.598;2023-11-19T06:51:11;98035.25;;;6.42;nan
9091;BME280;4581;42.416;25.598;2023-11-19T06:53:38;98056.66;;;6.42;nan
9091;BME280;4581;42.416;25.598;2023-11-19T06:56:20;98045.97;;;6.42;nan
9091;BME280;4581;42.416;25.598;2023-11-19T06:58:47;98040.97;;;6.47;nan
9091;BME280;4581;42.416;25.598;2023-11-19T07:01:15;98042.19;;;6.61;nan
9091;BME280;4581;42.416;25.598;2023-11-19T07:03:42;98049.47;;;6.85;nan
9091;BME280;4581;42.416;25.598;2023-11-19T07:06:10;98049.66;;;6.99;nan
9091;BME280;4581;42.416;25.598;2023-11-19T07:08:36;98054.19;;;7.07;nan
9091;BME280;4581;42.416;25.598;2023-11-19T07:11:05;98064.88;;;6.99;nan
9091;BME280;4581;42.416;25.598;2023-11-19T07:13:33;98040.72;;;6.83;nan
9091;BME280;4581;42.416;25.598;2023-11-19T07:15:59;98032.84;;;6.73;nan
9091;BME280;4581;42.416;25.598;2023-11-19T07:18:26;98029.69;;;6.70;nan
9091;BME280;4581;42.416;25.598;2023-11-19T07:20:53;98050.47;;;6.84;nan
9091;BME280;4581;42.416;25.598;2023-11-19T07:23:21;98046.13;;;6.91;nan
9091;BME280;4581;42.416;25.598;2023-11-19T07:25:48;98027.38;;;7.15;nan
9091;BME280;4581;42.416;25.598;2023-11-19T07:28:16;98034.78;;;7.29;nan
9091;BME280;4581;42.416;25.598;2023-11-19T07:30:44;98029.22;;;7.47;nan
9091;BME280;4581;42.416;25.598;2023-11-19T07:33:11;98038.47;;;7.61;nan
9091;BME280;4581;42.416;25.598;2023-11-19T07:35:39;98060.75;;;7.69;nan
9091;BME280;4581;42.416;25.598;2023-11-19T07:38:05;98048.81;;;7.80;nan
9091;BME280;4581;42.416;25.598;2023-11-19T07:40:32;98062.94;;;7.82;nan
9091;BME280;4581;42.416;25.598;2023-11-19T07:42:59;98058.56;;;7.89;nan
9091;BME280;4581;42.416;25.598;2023-11-19T07:45:26;98058.53;;;8.05;nan
9091;BME280;4581;42.416;25.598;2023-11-19T07:47:53;98076.13;;;8.08;nan
9091;BME280;4581;42.416;25.598;2023-11-19T07:50:21;98101.81;;;8.10;nan
9091;BME280;4581;42.416;25.598;2023-11-19T07:52:48;98097.25;;;8.11;nan
9091;BME280;4581;42.416;25.598;2023-11-19T07:55:15;98103.94;;;8.31;nan
9091;BME280;4581;42.416;25.598;2023-11-19T07:57:41;98114.16;;;8.43;nan
9091;BME280;4581;42.416;25.598;2023-11-19T08:00:08;98130.28;;;8.35;nan
9091;BME280;4581;42.416;25.598;2023-11-19T08:02:39;98123.91;;;8.44;nan
9091;BME280;4581;42.416;25.598;2023-11-19T08:05:06;98130.94;;;8.54;nan
9091;BME280;4581;42.416;25.598;2023-11-19T08:07:33;98151.22;;;8.64;nan
9091;BME280;4581;42.416;25.598;2023-11-19T08:10:00;98144.00;;;8.65;nan
9091;BME280;4581;42.416;25.598;2023-11-19T08:12:27;98132.69;;;8.77;nan
9091;BME280;4581;42.416;25.598;2023-11-19T08:14:53;98152.84;;;8.81;nan
9091;BME280;4581;42.416;25.598;2023-11-19T08:17:20;98160.06;;;8.81;nan
9091;BME280;4581;42.416;25.598;2023-11-19T08:19:50;98150.66;;;8.85;nan
9091;BME280;4581;42.416;25.598;2023-11-19T08:22:17;98133.47;;;8.94;nan
9091;BME280;4581;42.416;25.598;2023-11-19T08:24:44;98158.16;;;8.98;nan
9091;BME280;4581;42.416;25.598;2023-11-19T08:27:10;98142.34;;;9.03;nan
9091;BME280;4581;42.416;25.598;2023-11-19T08:29:37;98147.38;;;9.06;nan
9091;BME280;4581;42.416;25.598;2023-11-19T08:32:04;98136.09;;;9.10;nan
9091;BME280;4581;42.416;25.598;2023-11-19T08:34:33;98139.44;;;9.12;nan
9091;BME280;4581;42.416;25.598;2023-11-19T08:36:59;98143.59;;;9.15;nan
9091;BME280;4581;42.416;25.598;2023-11-19T08:39:26;98155.03;;;9.17;nan
9091;BME280;4581;42.416;25.598;2023-11-19T08:41:53;98166.44;;;9.19;nan
9091;BME280;4581;42.416;25.598;2023-11-19T08:44:22;98168.75;;;9.30;nan
9091;BME280;4581;42.416;25.598;2023-11-19T08:46:49;98164.81;;;9.40;nan
9091;BME280;4581;42.416;25.598;2023-11-19T08:49:16;98171.31;;;9.54;nan
9091;BME280;4581;42.416;25.598;2023-11-19T08:51:43;98168.63;;;9.54;nan
9091;BME280;4581;42.416;25.598;2023-11-19T08:54:11;98167.53;;;9.63;nan
9091;BME280;4581;42.416;25.598;2023-11-19T08:56:39;98174.47;;;9.58;nan
9091;BME280;4581;42.416;25.598;2023-11-19T08:59:06;98195.97;;;9.88;nan
9091;BME280;4581;42.416;25.598;2023-11-19T09:01:33;98184.78;;;10.00;nan
9091;BME280;4581;42.416;25.598;2023-11-19T09:04:00;98225.38;;;9.98;nan
9091;BME280;4581;42.416;25.598;2023-11-19T09:06:26;98230.50;;;10.08;nan
9091;BME280;4581;42.416;25.598;2023-11-19T09:08:54;98239.41;;;10.08;nan
9091;BME280;4581;42.416;25.598;2023-11-19T09:11:24;98251.69;;;10.19;nan
9091;BME280;4581;42.416;25.598;2023-11-19T09:13:51;98272.25;;;10.35;nan
9091;BME280;4581;42.416;25.598;2023-11-19T09:16:18;98249.31;;;10.39;nan
9091;BME280;4581;42.416;25.598;2023-11-19T09:18:45;98244.59;;;10.55;nan
9091;BME280;4581;42.416;25.598;2023-11-19T09:21:12;98229.09;;;10.57;nan
9091;BME280;4581;42.416;25.598;2023-11-19T09:23:39;98229.47;;;10.54;nan
9091;BME280;4581;42.416;25.598;2023-11-19T09:26:08;98234.50;;;10.57;nan
9091;BME280;4581;42.416;25.598;2023-11-19T09:28:35;98237.81;;;10.45;nan
9091;BME280;4581;42.416;25.598;2023-11-19T09:31:02;98231.09;;;10.41;nan
9091;BME280;4581;42.416;25.598;2023-11-19T09:33:31;98216.16;;;10.38;nan
9091;BME280;4581;42.416;25.598;2023-11-19T09:35:58;98235.72;;;10.69;nan
9091;BME280;4581;42.416;25.598;2023-11-19T09:38:25;98223.16;;;10.62;nan
9091;BME280;4581;42.416;25.598;2023-11-19T09:40:52;98216.59;;;10.79;nan
9091;BME280;4581;42.416;25.598;2023-11-19T09:43:19;98215.22;;;10.98;nan
9091;BME280;4581;42.416;25.598;2023-11-19T09:45:50;98245.34;;;11.16;nan
9091;BME280;4581;42.416;25.598;2023-11-19T09:48:18;98240.31;;;11.27;nan
9091;BME280;4581;42.416;25.598;2023-11-19T09:50:47;98234.66;;;11.22;nan
9091;BME280;4581;42.416;25.598;2023-11-19T09:53:14;98241.44;;;11.33;nan
9091;BME280;4581;42.416;25.598;2023-11-19T09:55:42;98245.06;;;11.25;nan
9091;BME280;4581;42.416;25.598;2023-11-19T09:58:12;98230.63;;;11.33;nan
9091;BME280;4581;42.416;25.598;2023-11-19T10:00:40;98234.91;;;11.27;nan
9091;BME280;4581;42.416;25.598;2023-11-19T10:03:10;98247.19;;;11.45;nan
9091;BME280;4581;42.416;25.598;2023-11-19T10:05:38;98243.09;;;11.49;nan
9091;BME280;4581;42.416;25.598;2023-11-19T10:08:06;98243.53;;;11.67;nan
9091;BME280;4581;42.416;25.598;2023-11-19T10:10:34;98238.06;;;11.75;nan
9091;BME280;4581;42.416;25.598;2023-11-19T10:13:01;98244.38;;;11.82;nan
9091;BME280;4581;42.416;25.598;2023-11-19T10:15:31;98255.97;;;11.68;nan
9091;BME280;4581;42.416;25.598;2023-11-19T10:18:04;98247.44;;;11.64;nan
9091;BME280;4581;42.416;25.598;2023-11-19T10:20:35;98258.09;;;11.51;nan
9091;BME280;4581;42.416;25.598;2023-11-19T10:23:03;98248.56;;;11.70;nan
9091;BME280;4581;42.416;25.598;2023-11-19T10:25:30;98248.47;;;11.63;nan
9091;BME280;4581;42.416;25.598;2023-11-19T10:27:57;98256.38;;;11.80;nan
9091;BME280;4581;42.416;25.598;2023-11-19T10:30:28;98264.34;;;12.02;nan
9091;BME280;4581;42.416;25.598;2023-11-19T10:33:09;98265.53;;;12.00;nan
9091;BME280;4581;42.416;25.598;2023-11-19T10:35:51;98259.41;;;13.04;nan
9091;BME280;4581;42.416;25.598;2023-11-19T10:38:26;98249.22;;;13.34;nan
9091;BME280;4581;42.416;25.598;2023-11-19T10:40:53;98264.31;;;13.15;nan
9091;BME280;4581;42.416;25.598;2023-11-19T10:43:23;98267.03;;;12.94;nan
9091;BME280;4581;42.416;25.598;2023-11-19T10:45:50;98256.03;;;13.23;nan
9091;BME280;4581;42.416;25.598;2023-11-19T10:48:18;98260.66;;;13.70;nan
9091;BME280;4581;42.416;25.598;2023-11-19T10:50:46;98241.63;;;13.57;nan
9091;BME280;4581;42.416;25.598;2023-11-19T10:53:14;98231.78;;;13.43;nan
9091;BME280;4581;42.416;25.598;2023-11-19T10:55:41;98221.13;;;13.41;nan
9091;BME280;4581;42.416;25.598;2023-11-19T10:58:08;98223.13;;;13.20;nan
9091;BME280;4581;42.416;25.598;2023-11-19T11:00:43;98235.75;;;13.12;nan
9091;BME280;4581;42.416;25.598;2023-11-19T11:03:22;98225.38;;;13.16;nan
9091;BME280;4581;42.416;25.598;2023-11-19T11:05:52;98238.34;;;13.68;nan
9091;BME280;4581;42.416;25.598;2023-11-19T11:08:20;98235.97;;;14.13;nan
9091;BME280;4581;42.416;25.598;2023-11-19T11:13:26;98225.03;;;16.15;nan
9091;BME280;4581;42.416;25.598;2023-11-19T11:15:56;98213.16;;;19.12;nan
9091;BME280;4581;42.416;25.598;2023-11-19T11:18:27;98213.59;;;21.90;nan
9091;BME280;4581;42.416;25.598;2023-11-19T11:20:59;98226.53;;;23.71;nan
9091;BME280;4581;42.416;25.598;2023-11-19T11:29:19;98233.94;;;23.65;nan
9091;BME280;4581;42.416;25.598;2023-11-19T11:38:08;98236.81;;;24.73;nan
9091;BME280;4581;42.416;25.598;2023-11-19T11:40:35;98230.50;;;25.53;nan
9091;BME280;4581;42.416;25.598;2023-11-19T11:43:03;98216.59;;;24.32;nan
9091;BME280;4581;42.416;25.598;2023-11-19T11:45:40;98222.81;;;24.07;nan
9091;BME280;4581;42.416;25.598;2023-11-19T11:48:11;98216.41;;;22.71;nan
9091;BME280;4581;42.416;25.598;2023-11-19T11:50:57;98207.16;;;22.55;nan
9091;BME280;4581;42.416;25.598;2023-11-19T11:53:25;98201.06;;;21.78;nan
9091;BME280;4581;42.416;25.598;2023-11-19T11:55:53;98196.91;;;20.82;nan
9091;BME280;4581;42.416;25.598;2023-11-19T11:58:28;98193.88;;;20.33;nan
9091;BME280;4581;42.416;25.598;2023-11-19T12:00:58;98196.81;;;20.60;nan
9091;BME280;4581;42.416;25.598;2023-11-19T12:03:28;98185.44;;;19.95;nan
9091;BME280;4581;42.416;25.598;2023-11-19T12:05:55;98173.19;;;19.97;nan
9091;BME280;4581;42.416;25.598;2023-11-19T12:08:26;98160.19;;;20.33;nan
9091;BME280;4581;42.416;25.598;2023-11-19T12:10:54;98167.22;;;19.60;nan
9091;BME280;4581;42.416;25.598;2023-11-19T12:13:29;98169.72;;;20.19;nan
9091;BME280;4581;42.416;25.598;2023-11-19T12:18:32;98156.44;;;17.78;nan
9091;BME280;4581;42.416;25.598;2023-11-19T12:20:59;98144.50;;;17.06;nan
9091;BME280;4581;42.416;25.598;2023-11-19T12:23:30;98144.16;;;16.53;nan
9091;BME280;4581;42.416;25.598;2023-11-19T12:25:58;98144.34;;;17.01;nan
9091;BME280;4581;42.416;25.598;2023-11-19T12:28:25;98156.03;;;18.34;nan
9091;BME280;4581;42.416;25.598;2023-11-19T12:31:07;98165.16;;;18.28;nan
9091;BME280;4581;42.416;25.598;2023-11-19T12:33:35;98150.81;;;18.33;nan
9091;BME280;4581;42.416;25.598;2023-11-19T12:36:02;98142.69;;;19.02;nan
9091;BME280;4581;42.416;25.598;2023-11-19T12:38:31;98155.31;;;19.67;nan
9091;BME280;4581;42.416;25.598;2023-11-19T12:41:08;98162.28;;;18.64;nan
9091;BME280;4581;42.416;25.598;2023-11-19T12:43:39;98165.03;;;17.27;nan
9091;BME280;4581;42.416;25.598;2023-11-19T12:46:23;98162.34;;;16.59;nan
9091;BME280;4581;42.416;25.598;2023-11-19T12:48:51;98165.44;;;15.69;nan
9091;BME280;4581;42.416;25.598;2023-11-19T12:51:18;98164.38;;;15.19;nan
9091;BME280;4581;42.416;25.598;2023-11-19T12:53:51;98159.03;;;14.86;nan
9091;BME280;4581;42.416;25.598;2023-11-19T12:56:21;98146.94;;;14.69;nan
9091;BME280;4581;42.416;25.598;2023-11-19T12:58:48;98136.97;;;14.56;nan
9091;BME280;4581;42.416;25.598;2023-11-19T13:01:19;98141.94;;;14.66;nan
9091;BME280;4581;42.416;25.598;2023-11-19T13:03:47;98142.59;;;14.41;nan
9091;BME280;4581;42.416;25.598;2023-11-19T13:06:18;98139.63;;;14.10;nan
9091;BME280;4581;42.416;25.598;2023-11-19T13:08:49;98142.94;;;13.92;nan
9091;BME280;4581;42.416;25.598;2023-11-19T13:11:35;98138.97;;;13.75;nan
9091;BME280;4581;42.416;25.598;2023-11-19T13:14:05;98128.78;;;13.84;nan
9091;BME280;4581;42.416;25.598;2023-11-19T13:16:36;98123.38;;;13.84;nan
9091;BME280;4581;42.416;25.598;2023-11-19T13:19:04;98113.56;;;13.89;nan
9091;BME280;4581;42.416;25.598;2023-11-19T13:21:31;98118.16;;;13.95;nan
9091;BME280;4581;42.416;25.598;2023-11-19T13:23:58;98109.81;;;13.90;nan
9091;BME280;4581;42.416;25.598;2023-11-19T13:26:25;98110.81;;;13.70;nan
9091;BME280;4581;42.416;25.598;2023-11-19T13:28:52;98097.22;;;13.50;nan
9091;BME280;4581;42.416;25.598;2023-11-19T13:31:19;98103.06;;;13.53;nan
9091;BME280;4581;42.416;25.598;2023-11-19T13:33:45;98102.63;;;13.43;nan
9091;BME280;4581;42.416;25.598;2023-11-19T13:36:12;98094.94;;;12.99;nan
9091;BME280;4581;42.416;25.598;2023-11-19T13:38:42;98097.94;;;13.11;nan
9091;BME280;4581;42.416;25.598;2023-11-19T13:41:10;98093.28;;;12.98;nan
9091;BME280;4581;42.416;25.598;2023-11-19T13:43:39;98100.31;;;12.93;nan
9091;BME280;4581;42.416;25.598;2023-11-19T13:46:06;98102.34;;;12.43;nan
9091;BME280;4581;42.416;25.598;2023-11-19T13:48:35;98097.00;;;12.29;nan
9091;BME280;4581;42.416;25.598;2023-11-19T13:51:02;98093.63;;;12.20;nan
9091;BME280;4581;42.416;25.598;2023-11-19T13:53:29;98086.91;;;11.88;nan
9091;BME280;4581;42.416;25.598;2023-11-19T13:55:56;98086.59;;;11.55;nan
9091;BME280;4581;42.416;25.598;2023-11-19T13:58:22;98094.63;;;11.49;nan
9091;BME280;4581;42.416;25.598;2023-11-19T14:00:50;98094.09;;;11.39;nan
9091;BME280;4581;42.416;25.598;2023-11-19T14:03:17;98091.25;;;11.25;nan